EGSS

London Stansted Airport

London, United Kingdom
METAR EGSS 260250Z AUTO 07009KT 9999 BKN043 M01/M07 Q1031
Observed Flight Rules
Feb-26 @ 02:50 UTC (24 minutes ago) Visual Flight Rules
Wind Visibility Clouds
70° at 9 knots 10,000+ meters
  • Broken at 4,300' AGL
Temperatures Readings
Current -1°C / 30°F
Dewpoint -7°C / 19°F
Humidity 64%
Altimeter 30.44" Hg
Pressure 1031 hPa
Elevation 106
METAR EGSS 260250Z AUTO 07009KT 9999 BKN043 M01/M07 Q1031
Observed Flight Rules
Feb-26 @ 02:50 UTC
(24 minutes ago)
VFR
Wind Visibility
70° at 9 knots 10,000+ meters
Clouds
  • Broken at 4,300' AGL
Temperature Dewpoint
-1°C / 30°F -7°C / 19°F
Humidity Altimeter Pressure
64% 30.44" Hg 1031 hPa